sensor_id;sensor_type;location;lat;lon;timestamp;pressure;altitude;pressure_sealevel;temperature;humidity
5814;BME280;2933;52.302;8.134;2023-04-26T00:04:22;100668.94;;;2.96;nan
5814;BME280;2933;52.302;8.134;2023-04-26T00:09:24;100675.50;;;2.75;nan
5814;BME280;2933;52.302;8.134;2023-04-26T00:14:25;100680.97;;;2.63;nan
5814;BME280;2933;52.302;8.134;2023-04-26T00:19:28;100674.72;;;2.71;nan
5814;BME280;2933;52.302;8.134;2023-04-26T00:24:31;100676.53;;;2.68;nan
5814;BME280;2933;52.302;8.134;2023-04-26T00:29:33;100679.63;;;2.82;nan
5814;BME280;2933;52.302;8.134;2023-04-26T00:34:36;100678.22;;;2.69;nan
5814;BME280;2933;52.302;8.134;2023-04-26T00:39:38;100677.03;;;2.82;nan
5814;BME280;2933;52.302;8.134;2023-04-26T00:44:39;100677.09;;;2.79;nan
5814;BME280;2933;52.302;8.134;2023-04-26T00:49:42;100678.97;;;2.74;nan
5814;BME280;2933;52.302;8.134;2023-04-26T00:54:44;100674.56;;;2.78;nan
5814;BME280;2933;52.302;8.134;2023-04-26T00:59:46;100670.78;;;2.91;nan
5814;BME280;2933;52.302;8.134;2023-04-26T01:04:49;100663.78;;;2.96;nan
5814;BME280;2933;52.302;8.134;2023-04-26T01:09:51;100662.25;;;2.89;nan
5814;BME280;2933;52.302;8.134;2023-04-26T01:14:53;100672.28;;;3.00;nan
5814;BME280;2933;52.302;8.134;2023-04-26T01:19:56;100674.47;;;2.82;nan
5814;BME280;2933;52.302;8.134;2023-04-26T01:25:00;100680.88;;;2.66;nan
5814;BME280;2933;52.302;8.134;2023-04-26T01:30:07;100677.94;;;2.80;nan
5814;BME280;2933;52.302;8.134;2023-04-26T01:35:09;100674.41;;;2.49;nan
5814;BME280;2933;52.302;8.134;2023-04-26T01:40:12;100676.16;;;2.47;nan
5814;BME280;2933;52.302;8.134;2023-04-26T01:45:14;100673.81;;;2.38;nan
5814;BME280;2933;52.302;8.134;2023-04-26T01:50:16;100682.56;;;2.31;nan
5814;BME280;2933;52.302;8.134;2023-04-26T01:55:19;100675.06;;;2.21;nan
5814;BME280;2933;52.302;8.134;2023-04-26T02:00:21;100667.09;;;2.31;nan
5814;BME280;2933;52.302;8.134;2023-04-26T02:05:23;100670.50;;;2.33;nan
5814;BME280;2933;52.302;8.134;2023-04-26T02:10:26;100673.34;;;2.22;nan
5814;BME280;2933;52.302;8.134;2023-04-26T02:15:27;100669.25;;;2.13;nan
5814;BME280;2933;52.302;8.134;2023-04-26T02:20:29;100666.03;;;2.03;nan
5814;BME280;2933;52.302;8.134;2023-04-26T02:25:32;100673.88;;;1.97;nan
5814;BME280;2933;52.302;8.134;2023-04-26T02:30:33;100674.97;;;1.87;nan
5814;BME280;2933;52.302;8.134;2023-04-26T02:35:35;100672.84;;;1.67;nan
5814;BME280;2933;52.302;8.134;2023-04-26T02:40:38;100676.00;;;1.37;nan
5814;BME280;2933;52.302;8.134;2023-04-26T02:45:40;100680.41;;;1.31;nan
5814;BME280;2933;52.302;8.134;2023-04-26T02:50:42;100681.19;;;1.36;nan
5814;BME280;2933;52.302;8.134;2023-04-26T02:55:45;100683.78;;;1.33;nan
5814;BME280;2933;52.302;8.134;2023-04-26T03:00:47;100678.84;;;1.22;nan
5814;BME280;2933;52.302;8.134;2023-04-26T03:05:48;100677.28;;;1.13;nan
5814;BME280;2933;52.302;8.134;2023-04-26T03:10:51;100683.50;;;1.03;nan
5814;BME280;2933;52.302;8.134;2023-04-26T03:15:53;100684.00;;;1.23;nan
5814;BME280;2933;52.302;8.134;2023-04-26T03:20:54;100680.31;;;0.88;nan
5814;BME280;2933;52.302;8.134;2023-04-26T03:25:57;100674.22;;;0.94;nan
5814;BME280;2933;52.302;8.134;2023-04-26T03:30:59;100670.94;;;0.87;nan
5814;BME280;2933;52.302;8.134;2023-04-26T03:36:01;100659.19;;;0.72;nan
5814;BME280;2933;52.302;8.134;2023-04-26T03:41:04;100666.47;;;0.97;nan
5814;BME280;2933;52.302;8.134;2023-04-26T03:46:05;100664.88;;;0.90;nan
5814;BME280;2933;52.302;8.134;2023-04-26T03:51:07;100666.09;;;0.69;nan
5814;BME280;2933;52.302;8.134;2023-04-26T03:56:09;100671.66;;;0.94;nan
5814;BME280;2933;52.302;8.134;2023-04-26T04:01:11;100670.81;;;0.93;nan
5814;BME280;2933;52.302;8.134;2023-04-26T04:06:13;100671.94;;;0.78;nan
5814;BME280;2933;52.302;8.134;2023-04-26T04:11:16;100636.34;;;0.54;nan
5814;BME280;2933;52.302;8.134;2023-04-26T04:16:17;100674.78;;;0.61;nan
5814;BME280;2933;52.302;8.134;2023-04-26T04:21:19;100666.44;;;0.48;nan
5814;BME280;2933;52.302;8.134;2023-04-26T04:26:22;100674.00;;;0.56;nan
5814;BME280;2933;52.302;8.134;2023-04-26T04:31:24;100676.63;;;0.53;nan
5814;BME280;2933;52.302;8.134;2023-04-26T04:36:25;100678.78;;;0.78;nan
5814;BME280;2933;52.302;8.134;2023-04-26T04:41:28;100678.97;;;1.17;nan
5814;BME280;2933;52.302;8.134;2023-04-26T04:46:29;100679.53;;;1.32;nan
5814;BME280;2933;52.302;8.134;2023-04-26T04:51:31;100660.97;;;1.14;nan
5814;BME280;2933;52.302;8.134;2023-04-26T04:56:34;100679.13;;;1.53;nan
5814;BME280;2933;52.302;8.134;2023-04-26T05:01:36;100683.75;;;1.78;nan
5814;BME280;2933;52.302;8.134;2023-04-26T05:06:37;100689.16;;;2.05;nan
5814;BME280;2933;52.302;8.134;2023-04-26T05:11:40;100692.06;;;2.29;nan
5814;BME280;2933;52.302;8.134;2023-04-26T05:20:08;100696.59;;;2.56;100.00
5814;BME280;2933;52.302;8.134;2023-04-26T05:25:10;100706.88;;;2.58;100.00
5814;BME280;2933;52.302;8.134;2023-04-26T05:30:13;100696.66;;;2.53;100.00
5814;BME280;2933;52.302;8.134;2023-04-26T05:35:16;100706.47;;;2.75;100.00
5814;BME280;2933;52.302;8.134;2023-04-26T05:40:18;100712.25;;;2.85;100.00
5814;BME280;2933;52.302;8.134;2023-04-26T05:45:19;100715.53;;;2.90;100.00
5814;BME280;2933;52.302;8.134;2023-04-26T05:50:22;100723.34;;;3.21;100.00
5814;BME280;2933;52.302;8.134;2023-04-26T05:55:24;100715.22;;;3.35;100.00
5814;BME280;2933;52.302;8.134;2023-04-26T06:00:25;100715.97;;;3.39;100.00
5814;BME280;2933;52.302;8.134;2023-04-26T06:05:28;100725.63;;;3.64;100.00
5814;BME280;2933;52.302;8.134;2023-04-26T06:10:30;100720.69;;;3.86;100.00
5814;BME280;2933;52.302;8.134;2023-04-26T06:15:32;100722.81;;;3.73;100.00
5814;BME280;2933;52.302;8.134;2023-04-26T06:20:49;100736.72;;;3.97;100.00
5814;BME280;2933;52.302;8.134;2023-04-26T06:25:51;100742.13;;;4.19;100.00
5814;BME280;2933;52.302;8.134;2023-04-26T06:30:52;100742.44;;;4.37;100.00
5814;BME280;2933;52.302;8.134;2023-04-26T06:35:55;100745.72;;;4.42;100.00
5814;BME280;2933;52.302;8.134;2023-04-26T06:40:57;100744.69;;;4.48;100.00
5814;BME280;2933;52.302;8.134;2023-04-26T06:45:58;100745.50;;;4.77;100.00
5814;BME280;2933;52.302;8.134;2023-04-26T06:51:05;100749.19;;;4.96;100.00
5814;BME280;2933;52.302;8.134;2023-04-26T06:56:07;100744.91;;;4.95;100.00
5814;BME280;2933;52.302;8.134;2023-04-26T07:01:08;100746.53;;;5.23;100.00
5814;BME280;2933;52.302;8.134;2023-04-26T07:06:11;100751.38;;;5.34;100.00
5814;BME280;2933;52.302;8.134;2023-04-26T07:11:13;100745.28;;;5.35;100.00
5814;BME280;2933;52.302;8.134;2023-04-26T07:16:14;100749.81;;;5.54;96.95
5814;BME280;2933;52.302;8.134;2023-04-26T07:21:17;100761.09;;;5.76;97.36
5814;BME280;2933;52.302;8.134;2023-04-26T07:26:19;100765.03;;;5.87;93.47
5814;BME280;2933;52.302;8.134;2023-04-26T07:31:20;100763.47;;;5.82;91.93
5814;BME280;2933;52.302;8.134;2023-04-26T07:36:23;100762.34;;;5.90;90.99
5814;BME280;2933;52.302;8.134;2023-04-26T07:41:27;100763.16;;;6.16;89.48
5814;BME280;2933;52.302;8.134;2023-04-26T07:46:28;100764.59;;;6.01;89.81
5814;BME280;2933;52.302;8.134;2023-04-26T07:51:31;100760.56;;;6.16;85.83
5814;BME280;2933;52.302;8.134;2023-04-26T07:56:32;100772.56;;;6.18;85.89
5814;BME280;2933;52.302;8.134;2023-04-26T08:01:34;100768.63;;;6.30;84.04
5814;BME280;2933;52.302;8.134;2023-04-26T08:06:37;100771.13;;;6.33;82.72
5814;BME280;2933;52.302;8.134;2023-04-26T08:11:38;100771.97;;;6.56;82.12
5814;BME280;2933;52.302;8.134;2023-04-26T08:16:42;100775.41;;;6.56;80.34
5814;BME280;2933;52.302;8.134;2023-04-26T08:21:44;100761.91;;;6.70;77.55
5814;BME280;2933;52.302;8.134;2023-04-26T08:26:46;100769.31;;;6.79;76.46
5814;BME280;2933;52.302;8.134;2023-04-26T08:31:48;100777.63;;;6.88;77.54
5814;BME280;2933;52.302;8.134;2023-04-26T08:36:51;100770.69;;;6.88;77.39
5814;BME280;2933;52.302;8.134;2023-04-26T08:41:55;100771.31;;;6.93;74.29
5814;BME280;2933;52.302;8.134;2023-04-26T08:47:03;100774.59;;;7.19;74.84
5814;BME280;2933;52.302;8.134;2023-04-26T08:52:11;100777.84;;;7.24;68.08
5814;BME280;2933;52.302;8.134;2023-04-26T08:57:14;100776.56;;;7.35;68.81
5814;BME280;2933;52.302;8.134;2023-04-26T09:02:17;100770.28;;;7.59;68.33
5814;BME280;2933;52.302;8.134;2023-04-26T09:07:25;100771.00;;;7.63;67.50
5814;BME280;2933;52.302;8.134;2023-04-26T09:12:28;100778.94;;;7.60;68.18
5814;BME280;2933;52.302;8.134;2023-04-26T09:17:31;100774.81;;;7.75;67.75
5814;BME280;2933;52.302;8.134;2023-04-26T09:22:36;100776.59;;;8.32;64.23
5814;BME280;2933;52.302;8.134;2023-04-26T09:27:39;100777.50;;;8.31;60.58
5814;BME280;2933;52.302;8.134;2023-04-26T09:32:47;100789.34;;;8.75;64.03
5814;BME280;2933;52.302;8.134;2023-04-26T09:37:53;100774.03;;;8.30;64.90
5814;BME280;2933;52.302;8.134;2023-04-26T09:42:57;100786.06;;;7.75;63.42
5814;BME280;2933;52.302;8.134;2023-04-26T09:48:15;100784.94;;;7.62;65.91
5814;BME280;2933;52.302;8.134;2023-04-26T09:53:31;100788.69;;;7.34;67.87
5814;BME280;2933;52.302;8.134;2023-04-26T09:58:35;100789.78;;;7.08;66.91
5814;BME280;2933;52.302;8.134;2023-04-26T10:03:37;100794.44;;;6.79;71.97
5814;BME280;2933;52.302;8.134;2023-04-26T10:08:40;100794.19;;;6.85;73.41
5814;BME280;2933;52.302;8.134;2023-04-26T10:13:42;100790.47;;;6.91;73.50
5814;BME280;2933;52.302;8.134;2023-04-26T10:18:44;100787.47;;;7.02;72.10
5814;BME280;2933;52.302;8.134;2023-04-26T10:23:47;100789.00;;;7.06;72.76
5814;BME280;2933;52.302;8.134;2023-04-26T10:28:54;100784.94;;;7.21;69.65
5814;BME280;2933;52.302;8.134;2023-04-26T10:34:17;100776.22;;;7.22;70.94
5814;BME280;2933;52.302;8.134;2023-04-26T10:39:20;100771.56;;;7.30;73.24
5814;BME280;2933;52.302;8.134;2023-04-26T10:44:39;100770.66;;;7.31;71.38
5814;BME280;2933;52.302;8.134;2023-04-26T10:49:45;100762.81;;;7.52;71.98
5814;BME280;2933;52.302;8.134;2023-04-26T10:54:55;100768.59;;;7.98;68.62
5814;BME280;2933;52.302;8.134;2023-04-26T11:00:17;100765.44;;;8.11;69.03
5814;BME280;2933;52.302;8.134;2023-04-26T11:05:40;100750.56;;;8.13;67.80
5814;BME280;2933;52.302;8.134;2023-04-26T11:10:57;100765.41;;;7.72;66.63
5814;BME280;2933;52.302;8.134;2023-04-26T11:15:59;100759.28;;;7.73;65.67
5814;BME280;2933;52.302;8.134;2023-04-26T11:21:04;100757.66;;;7.71;71.31
5814;BME280;2933;52.302;8.134;2023-04-26T11:26:07;100751.97;;;7.63;74.24
5814;BME280;2933;52.302;8.134;2023-04-26T11:31:09;100766.47;;;7.27;76.29
5814;BME280;2933;52.302;8.134;2023-04-26T11:36:11;100758.88;;;7.43;77.66
5814;BME280;2933;52.302;8.134;2023-04-26T11:41:13;100756.69;;;7.73;77.80
5814;BME280;2933;52.302;8.134;2023-04-26T11:46:19;100753.16;;;8.13;75.39
5814;BME280;2933;52.302;8.134;2023-04-26T11:51:22;100754.47;;;8.60;71.99
5814;BME280;2933;52.302;8.134;2023-04-26T11:56:25;100760.72;;;9.10;64.71
5814;BME280;2933;52.302;8.134;2023-04-26T12:01:28;100763.16;;;9.30;61.80
5814;BME280;2933;52.302;8.134;2023-04-26T12:06:30;100776.78;;;9.53;58.46
5814;BME280;2933;52.302;8.134;2023-04-26T12:11:34;100774.25;;;10.33;59.99
5814;BME280;2933;52.302;8.134;2023-04-26T12:16:36;100777.63;;;10.67;57.16
5814;BME280;2933;52.302;8.134;2023-04-26T12:21:41;100780.75;;;10.10;56.16
5814;BME280;2933;52.302;8.134;2023-04-26T12:26:44;100781.94;;;9.19;58.09
5814;BME280;2933;52.302;8.134;2023-04-26T12:31:46;100765.59;;;8.81;57.92
5814;BME280;2933;52.302;8.134;2023-04-26T12:36:47;100768.81;;;8.68;60.85
5814;BME280;2933;52.302;8.134;2023-04-26T12:41:50;100767.28;;;8.45;62.78
5814;BME280;2933;52.302;8.134;2023-04-26T12:46:52;100764.75;;;8.44;60.76
5814;BME280;2933;52.302;8.134;2023-04-26T12:51:53;100764.50;;;8.12;62.34
5814;BME280;2933;52.302;8.134;2023-04-26T12:56:56;100769.06;;;8.25;63.85
5814;BME280;2933;52.302;8.134;2023-04-26T13:01:58;100763.22;;;8.01;65.00
5814;BME280;2933;52.302;8.134;2023-04-26T13:06:59;100766.63;;;8.03;63.77
5814;BME280;2933;52.302;8.134;2023-04-26T13:12:02;100770.97;;;8.03;64.53
5814;BME280;2933;52.302;8.134;2023-04-26T13:17:04;100772.50;;;7.88;65.40
5814;BME280;2933;52.302;8.134;2023-04-26T13:22:09;100774.19;;;7.70;67.36
5814;BME280;2933;52.302;8.134;2023-04-26T13:27:12;100773.91;;;7.95;67.23
5814;BME280;2933;52.302;8.134;2023-04-26T13:32:14;100769.22;;;8.03;67.08
5814;BME280;2933;52.302;8.134;2023-04-26T13:37:16;100776.78;;;8.08;64.07
5814;BME280;2933;52.302;8.134;2023-04-26T13:42:21;100770.91;;;8.23;64.22
5814;BME280;2933;52.302;8.134;2023-04-26T13:47:23;100771.09;;;8.57;64.29
5814;BME280;2933;52.302;8.134;2023-04-26T13:52:24;100773.03;;;8.71;62.33
5814;BME280;2933;52.302;8.134;2023-04-26T13:57:28;100771.66;;;8.81;57.64
5814;BME280;2933;52.302;8.134;2023-04-26T14:02:30;100775.91;;;9.01;58.39
5814;BME280;2933;52.302;8.134;2023-04-26T14:07:31;100772.72;;;9.30;56.95
5814;BME280;2933;52.302;8.134;2023-04-26T14:12:34;100768.75;;;9.40;54.47
5814;BME280;2933;52.302;8.134;2023-04-26T14:17:36;100768.78;;;9.23;58.46
5814;BME280;2933;52.302;8.134;2023-04-26T14:22:38;100767.91;;;9.04;57.49
5814;BME280;2933;52.302;8.134;2023-04-26T14:27:40;100769.38;;;8.93;59.04
5814;BME280;2933;52.302;8.134;2023-04-26T14:32:42;100760.00;;;8.88;55.06
5814;BME280;2933;52.302;8.134;2023-04-26T14:37:44;100772.59;;;9.33;56.06
5814;BME280;2933;52.302;8.134;2023-04-26T14:42:47;100772.38;;;9.87;52.82
5814;BME280;2933;52.302;8.134;2023-04-26T14:47:49;100778.72;;;9.65;55.32
5814;BME280;2933;52.302;8.134;2023-04-26T14:52:50;100770.94;;;9.48;57.40
5814;BME280;2933;52.302;8.134;2023-04-26T14:57:53;100772.97;;;9.25;58.32
5814;BME280;2933;52.302;8.134;2023-04-26T15:02:54;100776.03;;;8.81;58.43
5814;BME280;2933;52.302;8.134;2023-04-26T15:07:56;100787.69;;;8.35;66.55
5814;BME280;2933;52.302;8.134;2023-04-26T15:12:59;100791.66;;;8.06;70.71
5814;BME280;2933;52.302;8.134;2023-04-26T15:18:00;100789.75;;;8.09;72.52
5814;BME280;2933;52.302;8.134;2023-04-26T15:23:02;100792.84;;;7.99;73.29
5814;BME280;2933;52.302;8.134;2023-04-26T15:28:05;100784.56;;;8.09;73.64
5814;BME280;2933;52.302;8.134;2023-04-26T15:33:07;100783.91;;;8.23;71.86
5814;BME280;2933;52.302;8.134;2023-04-26T15:38:09;100775.66;;;8.33;70.93
5814;BME280;2933;52.302;8.134;2023-04-26T15:43:12;100771.16;;;8.36;69.69
5814;BME280;2933;52.302;8.134;2023-04-26T15:48:13;100784.00;;;8.22;68.80
5814;BME280;2933;52.302;8.134;2023-04-26T15:53:15;100777.63;;;8.28;69.69
5814;BME280;2933;52.302;8.134;2023-04-26T15:58:18;100785.53;;;8.26;70.74
5814;BME280;2933;52.302;8.134;2023-04-26T16:03:19;100783.41;;;8.34;70.14
5814;BME280;2933;52.302;8.134;2023-04-26T16:08:21;100780.56;;;8.39;67.02
5814;BME280;2933;52.302;8.134;2023-04-26T16:13:24;100779.59;;;8.41;67.63
5814;BME280;2933;52.302;8.134;2023-04-26T16:18:26;100781.81;;;8.32;68.42
5814;BME280;2933;52.302;8.134;2023-04-26T16:23:27;100779.13;;;8.33;67.40
5814;BME280;2933;52.302;8.134;2023-04-26T16:28:30;100766.59;;;8.22;67.80
5814;BME280;2933;52.302;8.134;2023-04-26T16:33:31;100778.06;;;8.18;65.42
5814;BME280;2933;52.302;8.134;2023-04-26T16:38:33;100778.28;;;8.14;66.45
5814;BME280;2933;52.302;8.134;2023-04-26T16:43:36;100767.78;;;8.15;65.02
5814;BME280;2933;52.302;8.134;2023-04-26T16:48:38;100769.81;;;8.28;63.87
5814;BME280;2933;52.302;8.134;2023-04-26T16:53:39;100765.41;;;8.30;63.79
5814;BME280;2933;52.302;8.134;2023-04-26T16:58:42;100775.75;;;8.31;65.31
5814;BME280;2933;52.302;8.134;2023-04-26T17:03:44;100786.59;;;8.22;62.93
5814;BME280;2933;52.302;8.134;2023-04-26T17:08:46;100783.84;;;8.25;63.85
5814;BME280;2933;52.302;8.134;2023-04-26T17:13:49;100783.06;;;8.42;65.15
5814;BME280;2933;52.302;8.134;2023-04-26T17:18:50;100801.41;;;8.20;65.53
5814;BME280;2933;52.302;8.134;2023-04-26T17:23:52;100790.59;;;8.10;66.79
5814;BME280;2933;52.302;8.134;2023-04-26T17:28:55;100798.59;;;7.66;72.85
5814;BME280;2933;52.302;8.134;2023-04-26T17:33:56;100794.53;;;7.60;74.67
5814;BME280;2933;52.302;8.134;2023-04-26T17:38:58;100802.16;;;7.44;75.81
5814;BME280;2933;52.302;8.134;2023-04-26T17:44:01;100810.06;;;7.41;76.72
5814;BME280;2933;52.302;8.134;2023-04-26T17:49:02;100809.03;;;7.24;78.37
5814;BME280;2933;52.302;8.134;2023-04-26T17:54:04;100807.66;;;7.16;79.22
5814;BME280;2933;52.302;8.134;2023-04-26T17:59:07;100805.78;;;7.19;79.79
5814;BME280;2933;52.302;8.134;2023-04-26T18:04:08;100812.38;;;7.06;79.88
5814;BME280;2933;52.302;8.134;2023-04-26T18:09:10;100808.53;;;7.16;80.45
5814;BME280;2933;52.302;8.134;2023-04-26T18:14:13;100822.28;;;7.18;78.65
5814;BME280;2933;52.302;8.134;2023-04-26T18:19:14;100806.94;;;7.12;79.59
5814;BME280;2933;52.302;8.134;2023-04-26T18:24:16;100807.19;;;7.06;78.27
5814;BME280;2933;52.302;8.134;2023-04-26T18:29:19;100813.56;;;7.19;78.27
5814;BME280;2933;52.302;8.134;2023-04-26T18:34:20;100815.72;;;7.09;77.90
5814;BME280;2933;52.302;8.134;2023-04-26T18:39:22;100819.28;;;7.07;78.49
5814;BME280;2933;52.302;8.134;2023-04-26T18:44:25;100816.34;;;7.15;81.23
5814;BME280;2933;52.302;8.134;2023-04-26T18:49:27;100823.59;;;7.28;83.04
5814;BME280;2933;52.302;8.134;2023-04-26T18:54:28;100822.88;;;7.25;80.13
5814;BME280;2933;52.302;8.134;2023-04-26T18:59:33;100828.59;;;7.13;80.16
5814;BME280;2933;52.302;8.134;2023-04-26T19:04:35;100817.25;;;7.14;82.61
5814;BME280;2933;52.302;8.134;2023-04-26T19:09:36;100833.53;;;7.19;80.82
5814;BME280;2933;52.302;8.134;2023-04-26T19:14:40;100840.97;;;7.06;84.89
5814;BME280;2933;52.302;8.134;2023-04-26T19:19:41;100840.78;;;7.10;87.25
5814;BME280;2933;52.302;8.134;2023-04-26T19:24:43;100844.47;;;7.05;82.14
5814;BME280;2933;52.302;8.134;2023-04-26T19:29:49;100851.00;;;6.93;85.57
5814;BME280;2933;52.302;8.134;2023-04-26T19:34:51;100854.34;;;6.97;86.09
5814;BME280;2933;52.302;8.134;2023-04-26T19:39:52;100844.94;;;6.92;86.06
5814;BME280;2933;52.302;8.134;2023-04-26T19:44:55;100849.06;;;6.76;87.56
5814;BME280;2933;52.302;8.134;2023-04-26T19:49:57;100845.41;;;6.82;87.32
5814;BME280;2933;52.302;8.134;2023-04-26T19:54:59;100850.47;;;6.85;89.16
5814;BME280;2933;52.302;8.134;2023-04-26T20:00:02;100847.28;;;6.78;88.79
5814;BME280;2933;52.302;8.134;2023-04-26T20:05:10;100861.66;;;6.87;91.04
5814;BME280;2933;52.302;8.134;2023-04-26T20:10:15;100851.66;;;6.76;93.92
5814;BME280;2933;52.302;8.134;2023-04-26T20:15:18;100853.75;;;6.68;93.65
5814;BME280;2933;52.302;8.134;2023-04-26T20:20:20;100859.53;;;6.28;97.04
5814;BME280;2933;52.302;8.134;2023-04-26T20:25:22;100862.13;;;6.28;98.40
5814;BME280;2933;52.302;8.134;2023-04-26T20:30:25;100864.41;;;6.36;97.95
5814;BME280;2933;52.302;8.134;2023-04-26T20:35:28;100865.44;;;6.56;98.28
5814;BME280;2933;52.302;8.134;2023-04-26T20:40:30;100869.31;;;6.44;100.00
5814;BME280;2933;52.302;8.134;2023-04-26T20:45:33;100865.78;;;6.46;97.33
5814;BME280;2933;52.302;8.134;2023-04-26T20:50:35;100874.25;;;6.52;94.08
5814;BME280;2933;52.302;8.134;2023-04-26T20:55:36;100874.78;;;6.36;97.30
5814;BME280;2933;52.302;8.134;2023-04-26T21:00:39;100881.34;;;6.46;91.85
5814;BME280;2933;52.302;8.134;2023-04-26T21:05:41;100882.66;;;6.35;92.64
5814;BME280;2933;52.302;8.134;2023-04-26T21:10:42;100874.94;;;6.33;94.01
5814;BME280;2933;52.302;8.134;2023-04-26T21:15:45;100889.53;;;6.36;92.25
5814;BME280;2933;52.302;8.134;2023-04-26T21:20:47;100881.09;;;6.29;94.49
5814;BME280;2933;52.302;8.134;2023-04-26T21:25:49;100880.44;;;6.24;96.45
5814;BME280;2933;52.302;8.134;2023-04-26T21:31:00;100882.94;;;6.27;94.40
5814;BME280;2933;52.302;8.134;2023-04-26T21:36:03;100879.81;;;6.17;95.62
5814;BME280;2933;52.302;8.134;2023-04-26T21:41:05;100887.31;;;6.01;97.24
5814;BME280;2933;52.302;8.134;2023-04-26T21:46:08;100888.63;;;6.13;97.22
5814;BME280;2933;52.302;8.134;2023-04-26T21:51:10;100891.78;;;5.96;97.92
5814;BME280;2933;52.302;8.134;2023-04-26T21:56:12;100886.66;;;5.94;99.02
5814;BME280;2933;52.302;8.134;2023-04-26T22:01:15;100888.84;;;6.07;99.31
5814;BME280;2933;52.302;8.134;2023-04-26T22:06:17;100893.56;;;5.94;99.62
5814;BME280;2933;52.302;8.134;2023-04-26T22:11:18;100892.69;;;5.95;99.42
5814;BME280;2933;52.302;8.134;2023-04-26T22:16:22;100892.88;;;5.89;99.83
5814;BME280;2933;52.302;8.134;2023-04-26T22:21:23;100894.44;;;5.94;99.88
5814;BME280;2933;52.302;8.134;2023-04-26T22:26:25;100896.91;;;5.97;100.00
5814;BME280;2933;52.302;8.134;2023-04-26T22:31:28;100906.00;;;5.84;100.00
5814;BME280;2933;52.302;8.134;2023-04-26T22:36:30;100911.19;;;5.84;100.00
5814;BME280;2933;52.302;8.134;2023-04-26T22:41:31;100914.78;;;5.80;100.00
5814;BME280;2933;52.302;8.134;2023-04-26T22:46:34;100918.69;;;5.66;100.00
5814;BME280;2933;52.302;8.134;2023-04-26T22:51:36;100918.97;;;5.59;100.00
5814;BME280;2933;52.302;8.134;2023-04-26T22:56:37;100918.00;;;5.61;100.00
5814;BME280;2933;52.302;8.134;2023-04-26T23:01:40;100922.56;;;5.55;100.00
5814;BME280;2933;52.302;8.134;2023-04-26T23:06:42;100924.41;;;5.51;100.00
5814;BME280;2933;52.302;8.134;2023-04-26T23:11:43;100923.34;;;5.30;100.00
5814;BME280;2933;52.302;8.134;2023-04-26T23:16:46;100923.50;;;5.25;100.00
5814;BME280;2933;52.302;8.134;2023-04-26T23:21:48;100931.91;;;5.32;100.00
5814;BME280;2933;52.302;8.134;2023-04-26T23:26:49;100928.25;;;5.11;100.00
5814;BME280;2933;52.302;8.134;2023-04-26T23:31:52;100939.78;;;5.00;100.00
5814;BME280;2933;52.302;8.134;2023-04-26T23:36:54;100928.38;;;4.78;100.00
5814;BME280;2933;52.302;8.134;2023-04-26T23:41:55;100933.22;;;4.59;100.00
5814;BME280;2933;52.302;8.134;2023-04-26T23:46:58;100939.75;;;4.42;100.00
5814;BME280;2933;52.302;8.134;2023-04-26T23:52:00;100943.50;;;4.32;100.00
5814;BME280;2933;52.302;8.134;2023-04-26T23:57:01;100942.06;;;4.22;100.00
